Time;durP1;ratioP1;P1;durP2;ratioP2;P2;SDS_P1;SDS_P2;PMS_P1;PMS_P2;Temp;Humidity;BMP_temperature;BMP_pressure;BME280_temperature;BME280_humidity;BME280_pressure;Samples;Min_cycle;Max_cycle;Signal;HPM_P1;HPM_P2
2021/03/15 00:02:25;;;;;;;6.18;1.92;;;;;;;4.55;100.00;100865.44;5080577;28;20082;-60
2021/03/15 00:04:50;;;;;;;4.00;1.55;;;;;;;4.50;100.00;100863.03;5079250;28;20046;-60
2021/03/15 00:07:16;;;;;;;5.85;2.10;;;;;;;4.47;100.00;100860.56;5079060;28;20732;-60
2021/03/15 00:09:42;;;;;;;7.15;1.98;;;;;;;4.50;100.00;100863.03;5079094;28;20489;-60
2021/03/15 00:12:09;;;;;;;3.72;1.80;;;;;;;4.53;100.00;100862.88;5079022;28;20051;-60
2021/03/15 00:14:35;;;;;;;5.13;2.10;;;;;;;4.60;100.00;100857.13;5078966;28;20402;-62
2021/03/15 00:17:01;;;;;;;9.45;2.38;;;;;;;4.60;100.00;100854.47;5079025;28;20115;-60
2021/03/15 00:19:28;;;;;;;7.38;2.33;;;;;;;4.65;100.00;100850.56;5078604;28;20044;-61
2021/03/15 00:21:54;;;;;;;4.93;2.33;;;;;;;4.65;100.00;100852.34;5080096;28;20048;-63
2021/03/15 00:24:19;;;;;;;5.60;2.20;;;;;;;4.62;100.00;100855.22;5078909;28;20050;-60
2021/03/15 00:26:45;;;;;;;4.05;2.58;;;;;;;4.60;100.00;100851.81;5078780;28;20040;-61
2021/03/15 00:29:11;;;;;;;5.35;2.30;;;;;;;4.65;100.00;100849.69;5076450;28;20105;-61
2021/03/15 00:31:37;;;;;;;4.40;2.35;;;;;;;4.61;100.00;100850.81;5080249;28;20106;-60
2021/03/15 00:34:03;;;;;;;6.63;2.22;;;;;;;4.57;100.00;100842.19;5077082;23;20057;-61
2021/03/15 00:36:30;;;;;;;6.82;2.65;;;;;;;4.61;100.00;100845.50;5060023;28;20040;-61
2021/03/15 00:38:56;;;;;;;6.05;2.33;;;;;;;4.60;100.00;100835.81;5058252;28;20049;-61
2021/03/15 00:41:22;;;;;;;5.55;2.10;;;;;;;4.59;100.00;100839.41;5058062;28;20063;-61
2021/03/15 00:43:48;;;;;;;4.55;2.40;;;;;;;4.55;100.00;100838.78;5059764;28;20060;-61
2021/03/15 00:46:14;;;;;;;7.68;2.80;;;;;;;4.55;100.00;100834.28;5058628;28;20053;-63
2021/03/15 00:48:40;;;;;;;9.00;2.70;;;;;;;4.68;100.00;100839.69;5057954;28;20512;-60
2021/03/15 00:51:06;;;;;;;5.65;2.40;;;;;;;4.72;100.00;100837.69;5059546;28;20525;-61
2021/03/15 00:53:33;;;;;;;5.97;2.42;;;;;;;4.80;100.00;100838.03;5059176;28;20067;-61
2021/03/15 00:55:59;;;;;;;4.70;2.30;;;;;;;4.81;100.00;100836.22;5059884;28;20102;-61
2021/03/15 00:58:24;;;;;;;6.78;2.60;;;;;;;4.76;100.00;100841.88;5056078;28;20135;-61
2021/03/15 01:00:50;;;;;;;4.72;2.75;;;;;;;4.72;100.00;100843.84;5061387;28;20044;-63
2021/03/15 01:03:16;;;;;;;6.80;2.40;;;;;;;4.80;100.00;100840.72;5063607;28;20072;-61
2021/03/15 01:05:45;;;;;;;7.13;2.90;;;;;;;4.84;100.00;100846.69;5063338;28;20083;-61
2021/03/15 01:08:13;;;;;;;6.03;2.72;;;;;;;4.79;100.00;100844.31;5061232;28;20052;-61
2021/03/15 01:10:41;;;;;;;6.82;2.70;;;;;;;4.76;100.00;100844.53;5063062;28;20045;-62
2021/03/15 01:13:08;;;;;;;5.85;2.70;;;;;;;4.81;100.00;100837.06;5062598;28;20045;-60
2021/03/15 01:15:35;;;;;;;6.43;2.80;;;;;;;4.70;100.00;100836.94;5062550;28;20071;-61
2021/03/15 01:18:02;;;;;;;9.10;3.13;;;;;;;4.68;100.00;100837.03;5061182;28;20060;-62
2021/03/15 01:20:28;;;;;;;5.53;2.85;;;;;;;4.70;100.00;100831.59;5063582;28;20044;-61
2021/03/15 01:22:55;;;;;;;6.47;3.60;;;;;;;4.65;100.00;100836.34;5062652;28;20045;-61
2021/03/15 01:25:28;;;;;;;4.85;2.80;;;;;;;4.65;100.00;100839.03;5063006;28;20536;-61
2021/03/15 01:27:55;;;;;;;6.95;3.10;;;;;;;4.64;100.00;100837.28;5060650;28;20446;-61
2021/03/15 01:30:23;;;;;;;6.35;3.10;;;;;;;4.69;100.00;100836.06;5062899;28;20056;-60
2021/03/15 01:32:49;;;;;;;8.88;3.35;;;;;;;4.71;100.00;100839.50;5063620;28;20126;-62
2021/03/15 01:35:15;;;;;;;7.00;3.45;;;;;;;4.67;100.00;100835.31;5061741;28;20459;-61
2021/03/15 01:37:41;;;;;;;8.77;4.10;;;;;;;4.69;100.00;100832.53;5060849;28;20060;-62
2021/03/15 01:40:08;;;;;;;7.57;4.22;;;;;;;4.69;100.00;100832.53;5060469;28;20201;-61
2021/03/15 01:42:34;;;;;;;9.18;4.70;;;;;;;4.67;100.00;100832.66;5062958;28;20059;-61
2021/03/15 01:45:01;;;;;;;9.88;5.30;;;;;;;4.63;100.00;100830.28;5062765;28;20509;-61
2021/03/15 01:47:27;;;;;;;9.20;5.00;;;;;;;4.62;100.00;100828.56;5062506;28;20053;-61
2021/03/15 01:49:53;;;;;;;15.82;5.88;;;;;;;4.57;100.00;100832.38;5063818;28;20071;-63
2021/03/15 01:52:19;;;;;;;14.10;6.57;;;;;;;4.54;100.00;100821.91;5062654;28;20488;-61
2021/03/15 01:54:45;;;;;;;13.32;6.60;;;;;;;4.63;100.00;100831.13;5061072;28;20052;-61
2021/03/15 01:57:11;;;;;;;15.35;6.70;;;;;;;4.62;100.00;100824.06;5060859;28;20052;-62
2021/03/15 01:59:38;;;;;;;12.40;7.25;;;;;;;4.61;100.00;100825.03;5063088;28;20045;-61
2021/03/15 02:02:05;;;;;;;10.75;5.97;;;;;;;4.63;100.00;100824.94;5062693;28;20045;-61
2021/03/15 02:04:31;;;;;;;14.93;7.18;;;;;;;4.66;100.00;100822.09;5061994;28;20375;-63
2021/03/15 02:06:57;;;;;;;12.32;6.72;;;;;;;4.66;100.00;100817.59;5060222;28;20044;-61
2021/03/15 02:09:23;;;;;;;17.45;6.55;;;;;;;4.67;100.00;100826.47;5060709;28;20064;-62
2021/03/15 02:12:31;;;;;;;15.10;6.93;;;;;;;4.65;100.00;100817.69;5061334;28;20049;-62
2021/03/15 02:15:10;;;;;;;14.00;7.25;;;;;;;4.70;100.00;100823.59;5059733;28;20053;-62
2021/03/15 02:17:43;;;;;;;12.15;6.78;;;;;;;4.71;100.00;100819.97;5059715;28;20044;-62
2021/03/15 02:20:41;;;;;;;14.90;7.50;;;;;;;4.74;100.00;100822.41;5062263;28;20045;-62
2021/03/15 02:23:12;;;;;;;21.40;7.78;;;;;;;4.73;100.00;100820.72;5027366;28;20045;-62
2021/03/15 02:26:13;;;;;;;16.60;8.02;;;;;;;4.72;100.00;100821.69;5062142;28;20401;-63
2021/03/15 02:29:03;;;;;;;18.23;7.97;;;;;;;4.77;100.00;100824.03;5060215;28;20424;-62
2021/03/15 02:31:35;;;;;;;;;;;;;;;4.73;100.00;100820.72;5050853;28;20056;-63
2021/03/15 02:34:26;;;;;;;20.30;9.20;;;;;;;4.75;100.00;100824.16;5042176;28;20441;-63
2021/03/15 02:36:55;;;;;;;17.85;8.32;;;;;;;4.79;100.00;100825.66;5041203;28;20049;-62
2021/03/15 02:39:24;;;;;;;18.85;8.60;;;;;;;4.77;100.00;100827.59;5036738;28;20402;-61
2021/03/15 02:41:55;;;;;;;21.23;8.20;;;;;;;4.73;100.00;100836.72;5040303;28;20064;-62
2021/03/15 02:44:21;;;;;;;19.02;8.20;;;;;;;4.79;100.00;100836.31;5040649;28;20467;-62
2021/03/15 02:46:49;;;;;;;18.60;7.75;;;;;;;4.79;100.00;100832.81;5040802;28;20053;-63
2021/03/15 02:49:17;;;;;;;16.05;7.90;;;;;;;4.81;100.00;100834.41;5038990;28;20068;-62
2021/03/15 02:51:46;;;;;;;18.50;7.80;;;;;;;4.78;100.00;100834.59;5041171;28;20057;-62
2021/03/15 02:54:13;;;;;;;;;;;;;;;4.81;100.00;100834.41;5041546;28;20120;-62
2021/03/15 02:56:42;;;;;;;14.90;6.88;;;;;;;4.75;100.00;100834.81;5041863;28;19925;-63
2021/03/15 02:59:10;;;;;;;13.02;6.97;;;;;;;4.77;100.00;100840.03;5037183;28;20041;-62
2021/03/15 03:01:38;;;;;;;15.60;7.18;;;;;;;4.76;100.00;100841.88;5041348;28;20053;-62
2021/03/15 03:04:05;;;;;;;17.58;6.72;;;;;;;4.79;100.00;100835.47;5040811;28;20049;-62
2021/03/15 03:06:32;;;;;;;16.45;6.15;;;;;;;4.82;100.00;100841.47;5040669;28;20140;-64
2021/03/15 03:09:00;;;;;;;16.35;6.40;;;;;;;4.79;100.00;100841.66;5039370;28;20045;-62
2021/03/15 03:11:29;;;;;;;15.20;6.60;;;;;;;4.80;100.00;100842.50;5039629;28;20052;-62
2021/03/15 03:13:56;;;;;;;20.90;6.33;;;;;;;4.80;100.00;100847.84;5038336;28;20037;-61
2021/03/15 03:16:26;;;;;;;21.17;6.93;;;;;;;4.80;100.00;100838.03;5038744;28;20287;-62
2021/03/15 03:18:55;;;;;;;17.92;6.43;;;;;;;4.84;100.00;100844.03;5038752;28;20103;-61
2021/03/15 03:21:22;;;;;;;23.80;6.70;;;;;;;4.87;100.00;100850.03;5039569;28;21688;-62
2021/03/15 03:23:51;;;;;;;21.92;7.18;;;;;;;4.86;100.00;100850.97;5038923;28;20045;-62
2021/03/15 03:26:21;;;;;;;16.67;5.80;;;;;;;4.93;100.00;100850.56;5040169;28;20037;-62
2021/03/15 03:28:51;;;;;;;15.68;6.05;;;;;;;4.92;100.00;100857.72;5038809;28;20049;-62
2021/03/15 03:31:18;;;;;;;15.52;6.32;;;;;;;4.89;100.00;100864.13;5040406;28;20469;-63
2021/03/15 03:33:44;;;;;;;13.77;5.75;;;;;;;4.91;100.00;100872.84;5039127;28;20110;-62
2021/03/15 03:36:11;;;;;;;20.75;6.20;;;;;;;4.90;100.00;100873.84;5057445;28;20098;-64
2021/03/15 03:38:37;;;;;;;17.02;5.93;;;;;;;4.96;100.00;100879.72;5058345;28;20052;-62
2021/03/15 03:41:03;;;;;;;16.20;6.07;;;;;;;4.96;100.00;100879.72;5058821;28;20045;-63
2021/03/15 03:43:29;;;;;;;23.25;6.35;;;;;;;5.00;100.00;100889.22;5060108;28;20484;-63
2021/03/15 03:45:56;;;;;;;19.80;5.60;;;;;;;4.97;100.00;100882.28;5059960;28;20044;-62
2021/03/15 03:48:22;;;;;;;19.30;6.43;;;;;;;5.04;100.00;100890.75;5058390;28;20060;-62
2021/03/15 03:50:48;;;;;;;19.73;5.72;;;;;;;5.08;100.00;100887.78;5059270;28;20057;-62
2021/03/15 03:53:16;;;;;;;13.82;5.13;;;;;;;5.04;100.00;100888.09;5059566;28;20091;-62
2021/03/15 03:55:51;;;;;;;15.25;5.70;;;;;;;4.98;100.00;100896.50;5059771;28;20048;-63
2021/03/15 03:58:19;;;;;;;18.13;5.65;;;;;;;4.92;100.00;100895.06;5057014;28;20044;-62
2021/03/15 04:00:47;;;;;;;13.98;4.88;;;;;;;4.90;100.00;100889.84;5060743;28;20048;-62
2021/03/15 04:03:17;;;;;;;16.35;5.15;;;;;;;4.87;100.00;100890.03;5060392;28;20048;-62
2021/03/15 04:05:48;;;;;;;10.88;5.15;;;;;;;4.84;100.00;100894.69;5060044;28;20045;-62
2021/03/15 04:08:20;;;;;;;18.17;5.47;;;;;;;4.82;100.00;100900.13;5058101;28;20049;-62
2021/03/15 04:10:49;;;;;;;17.27;5.53;;;;;;;4.85;100.00;100899.94;5060170;28;20048;-62
2021/03/15 04:13:19;;;;;;;18.13;5.10;;;;;;;4.91;100.00;100904.88;5057992;28;20048;-63
2021/03/15 04:15:47;;;;;;;11.20;5.13;;;;;;;4.91;100.00;100910.19;5057940;28;20067;-63
2021/03/15 04:18:16;;;;;;;15.07;4.97;;;;;;;4.89;100.00;100914.78;5058071;28;20095;-61
2021/03/15 04:20:44;;;;;;;11.90;4.47;;;;;;;4.93;100.00;100917.25;5059486;28;20052;-61
2021/03/15 04:23:13;;;;;;;14.47;4.70;;;;;;;4.96;100.00;100919.72;5059195;28;20053;-62
2021/03/15 04:25:40;;;;;;;10.88;4.72;;;;;;;4.95;100.00;100910.00;5059555;28;20128;-62
2021/03/15 04:28:07;;;;;;;15.05;5.00;;;;;;;4.94;100.00;100921.63;5057634;28;20044;-62
2021/03/15 04:30:34;;;;;;;15.95;5.05;;;;;;;4.91;100.00;100928.88;5060231;28;20105;-62
2021/03/15 04:33:01;;;;;;;11.95;4.68;;;;;;;4.98;100.00;100925.84;5060185;28;20048;-62
2021/03/15 04:35:30;;;;;;;14.07;4.85;;;;;;;4.95;100.00;100934.00;5060078;28;20049;-62
2021/03/15 04:37:57;;;;;;;;;;;;;;;4.94;100.00;100937.66;5057043;28;20095;-63
2021/03/15 04:40:25;;;;;;;19.45;5.82;;;;;;;4.86;100.00;100947.00;5058815;28;19931;-63
2021/03/15 04:42:52;;;;;;;19.80;5.85;;;;;;;4.80;100.00;100934.03;5060644;28;20048;-62
2021/03/15 04:45:19;;;;;;;11.95;4.93;;;;;;;4.81;100.00;100941.06;5058528;28;22103;-62
2021/03/15 04:47:46;;;;;;;12.40;4.03;;;;;;;4.81;100.00;100941.06;5058308;28;20049;-63
2021/03/15 04:50:15;;;;;;;10.35;4.90;;;;;;;4.81;100.00;100956.22;5059053;28;20061;-64
2021/03/15 04:52:44;;;;;;;14.82;5.70;;;;;;;4.81;100.00;100949.06;5058921;28;20443;-62
2021/03/15 04:55:10;;;;;;;12.88;4.78;;;;;;;4.80;100.00;100955.38;5059762;28;20048;-63
2021/03/15 04:57:39;;;;;;;12.65;4.40;;;;;;;4.77;100.00;100947.56;5058419;28;20057;-62
2021/03/15 05:00:08;;;;;;;14.87;4.70;;;;;;;4.74;100.00;100942.41;5057299;28;20493;-63
2021/03/15 05:02:37;;;;;;;13.35;4.63;;;;;;;4.66;100.00;100958.03;5060144;28;20080;-63
2021/03/15 05:05:03;;;;;;;14.13;4.70;;;;;;;4.51;100.00;100957.19;5059453;28;20098;-62
2021/03/15 05:07:30;;;;;;;15.68;4.30;;;;;;;4.37;100.00;100952.69;5059030;28;20406;-62
2021/03/15 05:09:59;;;;;;;8.55;4.00;;;;;;;4.32;100.00;100949.47;5058511;28;20048;-62
2021/03/15 05:12:26;;;;;;;15.15;4.47;;;;;;;4.33;100.00;100956.53;5058359;28;20052;-62
2021/03/15 05:14:52;;;;;;;18.60;4.68;;;;;;;4.26;100.00;100961.34;5059696;28;20063;-62
2021/03/15 05:17:19;;;;;;;15.90;4.38;;;;;;;4.24;100.00;100957.06;5058140;28;20550;-63
2021/03/15 05:19:46;;;;;;;16.92;4.22;;;;;;;4.21;100.00;100958.97;5060133;28;20056;-63
2021/03/15 05:22:13;;;;;;;12.60;4.47;;;;;;;4.19;100.00;100960.00;5058130;28;20057;-63
2021/03/15 05:24:40;;;;;;;12.82;4.10;;;;;;;4.17;100.00;100962.75;5059460;28;20044;-62
2021/03/15 05:29:35;;;;;;;12.57;4.25;;;;;;;4.12;100.00;100964.84;5075364;23;20512;-64
2021/03/15 05:32:02;;;;;;;11.52;4.22;;;;;;;4.13;100.00;100982.53;5075508;28;20409;-62
2021/03/15 05:34:30;;;;;;;15.98;4.90;;;;;;;4.09;100.00;100970.34;5078270;28;20077;-62
2021/03/15 05:36:58;;;;;;;17.05;4.22;;;;;;;4.07;100.00;100977.56;5077826;28;20488;-62
2021/03/15 05:42:23;;;;;;;19.23;5.47;;;;;;;4.04;100.00;100977.75;4996939;22;20077;-62
2021/03/15 05:45:01;;;;;;;16.45;4.65;;;;;;;4.02;100.00;100988.50;5035190;28;20079;-62
2021/03/15 05:47:57;;;;;;;12.77;4.72;;;;;;;4.05;100.00;100987.47;5040675;28;20049;-63
2021/03/15 05:50:44;;;;;;;13.05;4.68;;;;;;;4.01;100.00;100989.44;5043748;28;20152;-62
2021/03/15 05:53:30;;;;;;;16.02;5.70;;;;;;;4.00;100.00;100992.19;5043836;28;20053;-62
2021/03/15 05:56:07;;;;;;;23.45;5.22;;;;;;;4.00;100.00;100990.38;5043191;28;20400;-62
2021/03/15 05:59:12;;;;;;;19.35;4.68;;;;;;;4.01;100.00;100983.28;5042244;28;20119;-63
2021/03/15 06:02:25;;;;;;;17.10;4.53;;;;;;;3.99;100.00;100995.81;5042686;28;20425;-62
2021/03/15 06:05:16;;;;;;;24.42;5.72;;;;;;;4.02;100.00;101001.81;5012241;28;20485;-62
2021/03/15 06:07:46;;;;;;;10.88;3.97;;;;;;;4.00;100.00;101001.03;5042918;28;20064;-62
2021/03/15 06:10:19;;;;;;;16.77;5.13;;;;;;;4.02;100.00;101008.97;5043440;28;20071;-62
2021/03/15 06:12:48;;;;;;;19.60;4.55;;;;;;;4.02;100.00;101011.63;5042525;28;20076;-62
2021/03/15 06:15:15;;;;;;;16.52;4.57;;;;;;;4.05;100.00;101014.13;5041636;28;20106;-61
2021/03/15 06:17:42;;;;;;;20.75;4.28;;;;;;;4.01;100.00;101016.06;5042182;28;20138;-62
2021/03/15 06:20:10;;;;;;;18.70;4.72;;;;;;;4.01;100.00;101020.56;5042379;28;20486;-62
2021/03/15 06:22:36;;;;;;;15.50;5.07;;;;;;;4.09;100.00;101025.44;5043046;28;20053;-63
2021/03/15 06:25:03;;;;;;;21.70;4.45;;;;;;;4.08;100.00;101024.59;5042648;28;20126;-62
2021/03/15 06:27:29;;;;;;;19.63;3.63;;;;;;;4.10;100.00;101030.66;5042150;28;20041;-62
2021/03/15 06:29:57;;;;;;;22.15;4.07;;;;;;;4.14;100.00;101034.88;5042555;28;20055;-61
2021/03/15 06:35:15;;;;;;;25.23;4.28;;;;;;;4.16;100.00;101043.63;5090688;22;20047;-61
2021/03/15 06:37:42;;;;;;;17.15;4.07;;;;;;;4.20;100.00;101041.66;5078616;28;20512;-63
2021/03/15 06:40:09;;;;;;;20.05;4.40;;;;;;;4.20;100.00;101037.16;5080075;28;20049;-63
2021/03/15 06:42:36;;;;;;;22.77;4.13;;;;;;;4.19;100.00;101051.44;5079895;28;20499;-62
2021/03/15 06:45:02;;;;;;;17.20;3.53;;;;;;;4.25;100.00;101060.03;5078782;28;20052;-63
2021/03/15 06:47:28;;;;;;;18.88;3.63;;;;;;;4.31;100.00;101055.16;5078152;28;20051;-64
2021/03/15 06:49:55;;;;;;;27.92;4.32;;;;;;;4.34;100.00;101051.47;5071882;28;20490;-62
2021/03/15 06:52:21;;;;;;;19.08;4.10;;;;;;;4.41;100.00;101050.16;5078959;28;20048;-62
2021/03/15 06:54:57;;;;;;;23.63;4.35;;;;;;;4.46;100.00;101061.41;5097509;22;20489;-62
2021/03/15 06:57:23;;;;;;;19.90;3.60;;;;;;;4.57;100.00;101058.09;5055918;28;20094;-63
2021/03/15 06:59:53;;;;;;;23.48;4.00;;;;;;;4.59;100.00;101071.34;5060053;28;20587;-61
2021/03/15 07:02:24;;;;;;;20.73;3.33;;;;;;;4.66;100.00;101072.69;5059789;28;20444;-62
2021/03/15 07:04:52;;;;;;;23.38;3.92;;;;;;;4.66;100.00;101073.53;5061156;28;20048;-62
2021/03/15 07:07:26;;;;;;;23.13;4.05;;;;;;;4.72;100.00;101075.81;5059696;28;20079;-61
2021/03/15 07:09:52;;;;;;;28.10;4.30;;;;;;;4.73;100.00;101077.53;5060726;28;20489;-62
2021/03/15 07:12:19;;;;;;;19.70;3.22;;;;;;;4.84;100.00;101081.38;5060180;28;20047;-62
2021/03/15 07:14:47;;;;;;;27.35;3.47;;;;;;;4.93;100.00;101082.63;5060885;28;20498;-62
2021/03/15 07:17:21;;;;;;;17.88;3.65;;;;;;;4.92;100.00;101087.09;5060626;28;20442;-61
2021/03/15 07:19:47;;;;;;;17.77;3.03;;;;;;;4.98;100.00;101091.22;5060839;28;20133;-62
2021/03/15 07:22:21;;;;;;;22.83;3.53;;;;;;;5.02;100.00;101092.72;5059706;28;20409;-63
2021/03/15 07:25:06;;;;;;;20.88;3.33;;;;;;;5.08;100.00;101087.03;5060108;28;20107;-61
2021/03/15 07:27:33;;;;;;;23.42;3.05;;;;;;;5.03;100.00;101092.63;5059947;28;20120;-62
2021/03/15 07:30:26;;;;;;;19.13;2.78;;;;;;;5.14;100.00;101101.75;5060937;28;20072;-62
2021/03/15 07:32:53;;;;;;;17.17;3.40;;;;;;;5.15;100.00;101107.00;5060835;28;20474;-62
2021/03/15 07:35:20;;;;;;;19.58;2.83;;;;;;;5.26;100.00;101112.53;5057257;28;20044;-63
2021/03/15 07:37:47;;;;;;;15.07;2.78;;;;;;;5.23;100.00;101110.06;5060623;28;20059;-62
2021/03/15 07:40:28;;;;;;;16.50;2.78;;;;;;;5.29;100.00;101121.34;5061233;28;20049;-61
2021/03/15 07:42:58;;;;;;;19.30;2.88;;;;;;;5.33;100.00;101118.38;5061055;28;20075;-62
2021/03/15 07:45:32;;;;;;;19.27;3.00;;;;;;;5.40;100.00;101124.16;5060896;28;20098;-63
2021/03/15 07:48:12;;;;;;;18.95;3.72;;;;;;;5.41;100.00;101133.91;5060375;28;20060;-63
2021/03/15 07:50:40;;;;;;;14.70;2.30;;;;;;;5.41;100.00;101133.91;5060498;28;20043;-63
2021/03/15 07:53:07;;;;;;;19.52;3.20;;;;;;;5.48;100.00;101137.03;5060689;28;20048;-64
2021/03/15 07:55:36;;;;;;;12.70;2.67;;;;;;;5.60;100.00;101139.78;5065724;28;20102;-63
2021/03/15 07:58:03;;;;;;;11.68;3.08;;;;;;;5.65;100.00;101152.00;5079053;28;20075;-63
2021/03/15 08:00:29;;;;;;;13.40;2.65;;;;;;;5.70;100.00;101148.09;5079857;28;20051;-63
2021/03/15 08:02:57;;;;;;;11.93;2.42;;;;;;;5.65;100.00;101162.69;5079657;28;20040;-63
2021/03/15 08:05:23;;;;;;;7.82;2.00;;;;;;;5.66;100.00;101159.06;5078311;28;20097;-63
2021/03/15 08:07:49;;;;;;;11.75;2.53;;;;;;;5.66;100.00;101156.41;5079143;28;20044;-64
2021/03/15 08:10:15;;;;;;;15.52;2.72;;;;;;;5.71;100.00;101160.50;5077740;28;20521;-63
2021/03/15 08:12:44;;;;;;;16.65;2.40;;;;;;;5.86;100.00;101164.00;5079726;28;20052;-63
2021/03/15 08:15:12;;;;;;;;;;;;;;;5.79;100.00;101174.19;5077126;28;20055;-63
2021/03/15 08:17:43;;;;;;;12.68;2.13;;;;;;;5.76;100.00;101169.06;5079227;28;19920;-62
2021/03/15 08:20:10;;;;;;;17.00;3.05;;;;;;;5.80;100.00;101172.41;5077145;28;20072;-62
2021/03/15 08:22:38;;;;;;;16.83;3.33;;;;;;;5.85;100.00;101169.44;5078003;28;20052;-62
2021/03/15 08:25:08;;;;;;;15.95;2.50;;;;;;;5.84;100.00;101170.38;5073098;28;20060;-62
2021/03/15 08:27:38;;;;;;;12.82;2.28;;;;;;;5.85;100.00;101167.63;5077606;28;20128;-62
2021/03/15 08:30:10;;;;;;;15.30;2.30;;;;;;;5.97;100.00;101174.84;5078602;28;20482;-63
2021/03/15 08:32:39;;;;;;;10.52;2.22;;;;;;;6.04;100.00;101170.00;5078592;28;20374;-61
2021/03/15 08:35:07;;;;;;;12.80;2.13;;;;;;;6.04;100.00;101178.00;5078033;28;20378;-62
2021/03/15 08:37:51;;;;;;;14.45;1.90;;;;;;;6.09;100.00;101186.56;5077825;28;20072;-62
2021/03/15 08:40:50;;;;;;;9.07;2.20;;;;;;;6.16;100.00;101187.03;5077407;28;20481;-62
2021/03/15 08:43:29;;;;;;;11.15;1.77;;;;;;;6.17;100.00;101188.78;5078041;28;20048;-62
2021/03/15 08:45:57;;;;;;;8.00;2.13;;;;;;;6.14;100.00;101195.16;5078230;28;20063;-62
2021/03/15 08:48:49;;;;;;;9.23;1.70;;;;;;;6.25;100.00;101194.47;5077295;28;20040;-61
2021/03/15 08:51:16;;;;;;;9.90;2.42;;;;;;;6.28;100.00;101191.59;5078250;28;20041;-62
2021/03/15 08:53:51;;;;;;;12.68;2.25;;;;;;;6.38;100.00;101197.19;5078422;28;20078;-62
2021/03/15 08:59:30;;;;;;;12.32;2.25;;;;;;;6.41;100.00;101204.16;5075278;22;20420;-62
2021/03/15 09:01:58;;;;;;;12.73;3.15;;;;;;;6.40;100.00;101207.78;5077691;28;20048;-61
2021/03/15 09:04:33;;;;;;;8.88;2.28;;;;;;;6.41;100.00;101201.50;5077709;28;20055;-61
2021/03/15 09:07:00;;;;;;;17.83;2.40;;;;;;;6.23;100.00;101204.41;5078987;28;20047;-62
2021/03/15 09:09:28;;;;;;;9.45;2.03;;;;;;;6.23;100.00;101209.75;5079099;28;20044;-62
2021/03/15 09:11:54;;;;;;;11.98;2.42;;;;;;;6.29;100.00;101209.34;5077677;28;20044;-61
2021/03/15 09:14:38;;;;;;;13.85;2.70;;;;;;;6.27;100.00;101210.41;5077555;28;20493;-62
2021/03/15 09:17:32;;;;;;;12.68;1.88;;;;;;;6.38;100.00;101217.75;5079033;28;20044;-63
2021/03/15 09:20:14;;;;;;;16.85;2.15;;;;;;;6.55;100.00;101219.28;5078551;28;20043;-62
2021/03/15 09:22:40;;;;;;;15.63;2.40;;;;;;;6.63;100.00;101223.19;5081768;28;20064;-63
2021/03/15 09:25:07;;;;;;;15.32;2.65;;;;;;;6.63;100.00;101225.84;5082744;28;20096;-62
2021/03/15 09:27:38;;;;;;;11.27;2.85;;;;;;;6.61;100.00;101218.88;5081943;28;20052;-62
2021/03/15 09:30:08;;;;;;;10.55;1.80;;;;;;;6.62;100.00;101226.81;5080644;28;20356;-62
2021/03/15 09:32:37;;;;;;;17.00;2.30;;;;;;;6.73;100.00;101228.78;5083704;28;20401;-62
2021/03/15 09:35:28;;;;;;;13.32;2.50;;;;;;;6.77;100.00;101221.41;5081630;28;20053;-67
2021/03/15 09:38:00;;;;;;;16.35;2.40;;;;;;;6.87;100.00;101225.16;5076324;28;20048;-62
2021/03/15 09:40:30;;;;;;;13.68;2.50;;;;;;;6.77;100.00;101240.13;5083191;28;20499;-62
2021/03/15 09:42:57;;;;;;;13.85;2.45;;;;;;;6.83;100.00;101235.22;5076140;28;20060;-68
2021/03/15 09:45:26;;;;;;;14.00;2.42;;;;;;;6.81;100.00;101237.13;5081405;28;20055;-66
2021/03/15 09:47:54;;;;;;;11.75;2.78;;;;;;;6.79;100.00;101238.22;5077976;28;20067;-63
2021/03/15 09:50:23;;;;;;;10.70;1.80;;;;;;;6.88;100.00;101242.94;5078092;28;20048;-64
2021/03/15 09:52:49;;;;;;;11.38;2.03;;;;;;;6.92;100.00;101248.94;5083114;28;20055;-63
2021/03/15 09:55:16;;;;;;;15.90;2.53;;;;;;;6.80;100.00;101250.63;5079251;28;20405;-63
2021/03/15 09:57:42;;;;;;;11.02;2.45;;;;;;;6.78;100.00;101248.03;5081758;28;20389;-67
2021/03/15 10:00:10;;;;;;;10.98;2.60;;;;;;;6.85;100.00;101253.84;5061478;28;20053;-64
2021/03/15 10:02:37;;;;;;;12.07;2.15;;;;;;;6.85;100.00;101261.88;5055994;28;20056;-62
2021/03/15 10:05:05;;;;;;;12.65;2.63;;;;;;;6.84;100.00;101254.81;5059809;28;20536;-64
2021/03/15 10:07:33;;;;;;;15.85;2.92;;;;;;;6.95;100.00;101268.34;5060657;28;20082;-63
2021/03/15 10:10:08;;;;;;;13.35;1.80;;;;;;;6.92;100.00;101265.88;5061305;28;20406;-70
2021/03/15 10:12:34;;;;;;;9.93;2.17;;;;;;;6.88;100.00;101272.38;5061251;28;20036;-64
2021/03/15 10:15:00;;;;;;;13.00;2.80;;;;;;;6.87;100.00;101273.34;5059986;28;20052;-64
2021/03/15 10:17:27;;;;;;;11.95;2.25;;;;;;;6.77;100.00;101269.56;5059759;28;20079;-64
2021/03/15 10:19:53;;;;;;;17.65;2.42;;;;;;;6.68;100.00;101276.38;5061696;28;20052;-63
2021/03/15 10:22:21;;;;;;;18.10;3.10;;;;;;;6.62;100.00;101277.63;5061256;28;20421;-64
2021/03/15 10:24:50;;;;;;;13.20;3.28;;;;;;;6.61;100.00;101280.41;5060617;28;20052;-67
2021/03/15 10:27:18;;;;;;;15.07;2.60;;;;;;;6.69;100.00;101280.75;5059765;28;20110;-64
2021/03/15 10:29:49;;;;;;;16.08;2.70;;;;;;;6.72;100.00;101285.06;5060016;28;20388;-63
2021/03/15 10:32:20;;;;;;;16.13;2.40;;;;;;;6.78;100.00;101285.50;5056270;28;20063;-64
2021/03/15 10:34:52;;;;;;;10.55;2.30;;;;;;;6.76;100.00;101287.44;5060372;28;20094;-67
2021/03/15 10:37:18;;;;;;;13.55;2.58;;;;;;;6.65;100.00;101296.16;5057446;28;20052;-62
2021/03/15 10:39:48;;;;;;;12.68;2.58;;;;;;;6.53;100.00;101294.28;5060032;28;20060;-62
2021/03/15 10:42:14;;;;;;;7.47;1.73;;;;;;;6.77;100.00;101298.97;5060563;28;20129;-63
2021/03/15 10:44:40;;;;;;;10.98;2.10;;;;;;;6.94;100.00;101303.22;5059746;28;20052;-64
2021/03/15 10:47:08;;;;;;;12.52;2.22;;;;;;;6.90;100.00;101305.22;5057279;28;20087;-64
2021/03/15 10:49:34;;;;;;;12.52;2.10;;;;;;;6.90;100.00;101304.38;5060694;28;20081;-66
2021/03/15 10:52:00;;;;;;;14.82;3.08;;;;;;;6.71;100.00;101304.75;5060941;28;20045;-61
2021/03/15 10:54:31;;;;;;;10.25;2.28;;;;;;;6.78;100.00;101301.56;5058764;28;20087;-64
2021/03/15 10:57:17;;;;;;;13.05;2.83;;;;;;;6.65;100.00;101306.88;5059462;28;20427;-63
2021/03/15 10:59:44;;;;;;;15.05;2.35;;;;;;;6.71;100.00;101299.38;5060288;28;20499;-65
2021/03/15 11:02:11;;;;;;;22.27;3.25;;;;;;;6.74;100.00;101304.53;5058939;28;20440;-63
2021/03/15 11:04:40;;;;;;;16.52;3.42;;;;;;;6.75;100.00;101304.44;5060965;28;20040;-62
2021/03/15 11:07:23;;;;;;;19.98;3.30;;;;;;;6.95;100.00;101302.25;5056693;28;20494;-63
2021/03/15 11:10:02;;;;;;;21.42;3.35;;;;;;;7.20;100.00;101306.84;5060135;28;20052;-64
2021/03/15 11:12:38;;;;;;;19.70;3.47;;;;;;;7.10;100.00;101311.94;5058715;28;20055;-62
2021/03/15 11:15:15;;;;;;;20.88;3.30;;;;;;;6.95;100.00;101313.84;5058712;28;20048;-63
2021/03/15 11:17:43;;;;;;;17.85;3.72;;;;;;;6.79;100.00;101313.13;5059495;28;20113;-65
2021/03/15 11:20:11;;;;;;;18.27;4.15;;;;;;;6.89;100.00;101326.75;5058735;28;20041;-63
2021/03/15 11:22:45;;;;;;;19.92;3.03;;;;;;;6.99;100.00;101310.00;5060401;28;20464;-63
2021/03/15 11:25:12;;;;;;;20.33;3.25;;;;;;;7.43;100.00;101320.50;5052143;28;20557;-61
2021/03/15 11:27:40;;;;;;;16.92;3.17;;;;;;;7.93;100.00;101316.13;5058553;28;20053;-63
2021/03/15 11:30:19;;;;;;;18.13;4.07;;;;;;;7.86;100.00;101321.06;5057438;28;20056;-64
2021/03/15 11:32:46;;;;;;;18.15;2.78;;;;;;;7.82;100.00;101314.22;5059400;28;20060;-63
2021/03/15 11:35:18;;;;;;;20.30;2.90;;;;;;;7.96;100.00;101328.47;5058797;28;20040;-63
2021/03/15 11:37:47;;;;;;;19.52;3.08;;;;;;;7.91;100.00;101322.59;5058691;28;20055;-64
2021/03/15 11:40:14;;;;;;;15.00;3.03;;;;;;;7.88;100.00;101335.22;5059585;28;20044;-64
2021/03/15 11:42:41;;;;;;;14.95;2.67;;;;;;;7.92;100.00;101333.19;5059831;28;20048;-62
2021/03/15 11:45:08;;;;;;;12.15;2.63;;;;;;;7.68;100.00;101341.94;5058072;28;20060;-63